Time;durP1;ratioP1;P1;durP2;ratioP2;P2;SDS_P1;SDS_P2;PMS_P1;PMS_P2;Temp;Humidity;BMP_temperature;BMP_pressure;BME280_temperature;BME280_humidity;BME280_pressure;Samples;Min_cycle;Max_cycle;Signal;HPM_P1;HPM_P2
2023/05/16 00:00:13;;;;;;;;;;;11.10;99.90;;;;;;5132737;27;20041;-45
2023/05/16 00:02:39;;;;;;;;;;;11.10;99.90;;;;;;5133101;27;20357;-44
2023/05/16 00:05:06;;;;;;;;;;;11.00;99.90;;;;;;5133436;27;19958;-44
2023/05/16 00:07:32;;;;;;;;;;;11.00;99.90;;;;;;5131720;27;20014;-44
2023/05/16 00:09:58;;;;;;;;;;;11.00;99.90;;;;;;5133384;27;19943;-45
2023/05/16 00:12:23;;;;;;;;;;;11.00;99.90;;;;;;5133699;27;19933;-46
2023/05/16 00:14:51;;;;;;;;;;;10.90;99.90;;;;;;5132573;27;19911;-44
2023/05/16 00:17:19;;;;;;;;;;;10.80;99.90;;;;;;5120833;27;19920;-45
2023/05/16 00:19:56;;;;;;;;;;;10.80;99.90;;;;;;5114784;28;19969;-47
2023/05/16 00:22:22;;;;;;;;;;;10.80;99.90;;;;;;5121173;28;20370;-45
2023/05/16 00:24:48;;;;;;;;;;;10.80;99.90;;;;;;5127092;28;19919;-44
2023/05/16 00:27:14;;;;;;;;;;;10.70;99.90;;;;;;5132680;28;19915;-45
2023/05/16 00:29:39;;;;;;;;;;;10.70;99.90;;;;;;5133607;28;20377;-47
2023/05/16 00:32:07;;;;;;;;;;;10.60;99.90;;;;;;5133621;28;19915;-44
2023/05/16 00:34:33;;;;;;;;;;;10.60;99.90;;;;;;5132441;28;19961;-45
2023/05/16 00:36:58;;;;;;;;;;;10.60;99.90;;;;;;5133529;28;19969;-44
2023/05/16 00:39:24;;;;;;;;;;;10.50;99.90;;;;;;5115330;28;19915;-44
2023/05/16 00:41:50;;;;;;;;;;;10.50;99.90;;;;;;5112448;28;19915;-44
2023/05/16 00:44:15;;;;;;;;;;;10.50;99.90;;;;;;5112842;28;19908;-45
2023/05/16 00:46:41;;;;;;;;;;;10.40;99.90;;;;;;5112860;28;20020;-44
2023/05/16 00:49:07;;;;;;;;;;;10.40;99.90;;;;;;5112166;28;19996;-44
2023/05/16 00:51:32;;;;;;;;;;;10.40;99.90;;;;;;5112897;28;19908;-43
2023/05/16 00:53:58;;;;;;;;;;;10.30;99.90;;;;;;5112674;28;20343;-45
2023/05/16 00:56:23;;;;;;;;;;;10.30;99.90;;;;;;5111909;28;19916;-44
2023/05/16 00:58:49;;;;;;;;;;;10.30;99.90;;;;;;5112956;28;20412;-44
2023/05/16 01:01:15;;;;;;;;;;;10.30;99.90;;;;;;5117582;28;19912;-43
2023/05/16 01:03:41;;;;;;;;;;;10.20;99.90;;;;;;5126146;28;20259;-43
2023/05/16 01:06:07;;;;;;;;;;;10.20;99.90;;;;;;5121771;28;19912;-46
2023/05/16 01:08:32;;;;;;;;;;;10.10;99.90;;;;;;5129049;28;19964;-44
2023/05/16 01:11:11;;;;;;;;;;;10.10;99.90;;;;;;5124833;28;19974;-45
2023/05/16 01:13:43;;;;;;;;;;;10.10;99.90;;;;;;5119644;28;19964;-44
2023/05/16 01:16:08;;;;;;;;;;;10.10;99.90;;;;;;5119328;28;20023;-45
2023/05/16 01:18:51;;;;;;;;;;;10.10;99.90;;;;;;5125187;27;20002;-44
2023/05/16 01:21:24;;;;;;;;;;;10.10;99.90;;;;;;5117126;27;19911;-44
2023/05/16 01:24:08;;;;;;;;;;;10.00;99.90;;;;;;5115574;27;19911;-45
2023/05/16 01:26:34;;;;;;;;;;;10.00;99.90;;;;;;5116549;27;20014;-44
2023/05/16 01:29:00;;;;;;;;;;;10.00;99.90;;;;;;5120174;27;19912;-44
2023/05/16 01:31:27;;;;;;;;;;;10.00;99.90;;;;;;5125183;27;20002;-45
2023/05/16 01:33:52;;;;;;;;;;;10.00;99.90;;;;;;5136523;27;19947;-44
2023/05/16 01:36:28;;;;;;;;;;;9.90;99.90;;;;;;5119740;27;20286;-44
2023/05/16 01:39:02;;;;;;;;;;;9.90;99.90;;;;;;5115249;28;19907;-44
2023/05/16 01:41:38;;;;;;;;;;;9.90;99.90;;;;;;5115994;28;19908;-44
2023/05/16 01:44:07;;;;;;;;;;;9.80;99.90;;;;;;5115985;28;20289;-44
2023/05/16 01:46:36;;;;;;;;;;;9.80;99.90;;;;;;5115123;28;19915;-45
2023/05/16 01:49:24;;;;;;;;;;;9.70;99.90;;;;;;5136471;27;19915;-43
2023/05/16 01:52:12;;;;;;;;;;;9.70;99.90;;;;;;5135652;27;19908;-44
2023/05/16 01:54:41;;;;;;;;;;;9.70;99.90;;;;;;5136730;27;19918;-45
2023/05/16 01:57:07;;;;;;;;;;;9.70;99.90;;;;;;5136461;27;19915;-43
2023/05/16 01:59:33;;;;;;;;;;;9.60;99.90;;;;;;5135339;27;20011;-44
2023/05/16 02:01:59;;;;;;;;;;;9.60;99.90;;;;;;5136252;27;19907;-45
2023/05/16 02:04:25;;;;;;;;;;;9.50;99.90;;;;;;5135962;27;19915;-44
2023/05/16 02:06:50;;;;;;;;;;;9.50;99.90;;;;;;5135164;27;19911;-43
2023/05/16 02:09:16;;;;;;;;;;;9.40;99.90;;;;;;5135894;27;19907;-44
2023/05/16 02:11:42;;;;;;;;;;;9.40;99.90;;;;;;5136105;27;19946;-44
2023/05/16 02:14:08;;;;;;;;;;;9.30;99.90;;;;;;5135400;27;20380;-45
2023/05/16 02:16:33;;;;;;;;;;;9.30;99.90;;;;;;5135796;27;19919;-43
2023/05/16 02:18:58;;;;;;;;;;;9.20;99.90;;;;;;5135885;27;19914;-43
2023/05/16 02:21:24;;;;;;;;;;;9.20;99.90;;;;;;5134949;27;19913;-44
2023/05/16 02:23:50;;;;;;;;;;;9.20;99.90;;;;;;5129063;27;19907;-44
2023/05/16 02:26:15;;;;;;;;;;;9.20;99.90;;;;;;5115149;28;20354;-44
2023/05/16 02:28:40;;;;;;;;;;;9.20;99.90;;;;;;5114530;28;19939;-44
2023/05/16 02:31:06;;;;;;;;;;;9.10;99.90;;;;;;5114270;27;19914;-45
2023/05/16 02:33:33;;;;;;;;;;;9.00;99.90;;;;;;5114655;28;19920;-44
2023/05/16 02:35:59;;;;;;;;;;;9.10;99.90;;;;;;5115063;27;19912;-44
2023/05/16 02:38:24;;;;;;;;;;;9.10;99.90;;;;;;5114938;27;19992;-44
2023/05/16 02:40:50;;;;;;;;;;;9.10;99.90;;;;;;5128439;27;19919;-44
2023/05/16 02:43:15;;;;;;;;;;;9.00;99.90;;;;;;5132862;27;19919;-45
2023/05/16 02:45:41;;;;;;;;;;;9.00;99.90;;;;;;5118789;27;20006;-43
2023/05/16 02:48:06;;;;;;;;;;;9.00;99.90;;;;;;5134616;27;19981;-44
2023/05/16 02:50:32;;;;;;;;;;;8.90;99.90;;;;;;5134804;27;20408;-44
2023/05/16 02:52:58;;;;;;;;;;;8.90;99.90;;;;;;5126481;27;20396;-44
2023/05/16 02:55:24;;;;;;;;;;;8.90;99.90;;;;;;5129589;27;19915;-45
2023/05/16 02:57:50;;;;;;;;;;;8.90;99.90;;;;;;5134930;27;19916;-45
2023/05/16 03:00:16;;;;;;;;;;;8.80;99.90;;;;;;5134933;27;19908;-44
2023/05/16 03:02:42;;;;;;;;;;;8.80;99.90;;;;;;5134108;27;19915;-45
2023/05/16 03:05:08;;;;;;;;;;;8.80;99.90;;;;;;5134627;27;19908;-44
2023/05/16 03:07:34;;;;;;;;;;;8.80;99.90;;;;;;5134659;27;19911;-45
2023/05/16 03:09:59;;;;;;;;;;;8.80;99.90;;;;;;5131731;27;19914;-44
2023/05/16 03:12:25;;;;;;;;;;;8.80;99.90;;;;;;5124197;27;20388;-45
2023/05/16 03:14:51;;;;;;;;;;;8.80;99.90;;;;;;5134790;27;20021;-46
2023/05/16 03:17:16;;;;;;;;;;;8.80;99.90;;;;;;5133760;27;19922;-44
2023/05/16 03:19:42;;;;;;;;;;;8.80;99.90;;;;;;5134572;27;20124;-44
2023/05/16 03:22:07;;;;;;;;;;;8.80;99.90;;;;;;5134479;27;19907;-44
2023/05/16 03:24:32;;;;;;;;;;;8.80;99.90;;;;;;5133736;27;19919;-44
2023/05/16 03:26:59;;;;;;;;;;;8.80;99.90;;;;;;5134561;27;20331;-44
2023/05/16 03:29:25;;;;;;;;;;;8.80;99.90;;;;;;5134278;27;19930;-43
2023/05/16 03:31:51;;;;;;;;;;;8.80;99.90;;;;;;5133691;27;19960;-45
2023/05/16 03:34:17;;;;;;;;;;;8.80;99.90;;;;;;5133992;27;19924;-44
2023/05/16 03:36:42;;;;;;;;;;;8.80;99.90;;;;;;5134486;27;19923;-43
2023/05/16 03:39:07;;;;;;;;;;;8.70;99.90;;;;;;5133457;27;20374;-45
2023/05/16 03:41:33;;;;;;;;;;;8.70;99.90;;;;;;5133994;27;19911;-44
2023/05/16 03:43:59;;;;;;;;;;;8.70;99.90;;;;;;5134259;27;19908;-43
2023/05/16 03:46:25;;;;;;;;;;;8.60;99.90;;;;;;5133127;27;19908;-43
2023/05/16 03:48:50;;;;;;;;;;;8.60;99.90;;;;;;5134122;27;20381;-46
2023/05/16 03:51:16;;;;;;;;;;;8.60;99.90;;;;;;5133311;27;19907;-43
2023/05/16 03:53:41;;;;;;;;;;;8.50;99.90;;;;;;5130267;27;20265;-43
2023/05/16 03:56:07;;;;;;;;;;;8.50;99.90;;;;;;5133268;27;19934;-46
2023/05/16 03:58:32;;;;;;;;;;;8.50;99.90;;;;;;5131482;27;19915;-43
2023/05/16 04:00:58;;;;;;;;;;;8.40;99.90;;;;;;5133333;27;20002;-44
2023/05/16 04:03:27;;;;;;;;;;;8.40;99.90;;;;;;5133205;27;19912;-45
2023/05/16 04:05:53;;;;;;;;;;;8.30;99.90;;;;;;5122218;27;19916;-44
2023/05/16 04:08:19;;;;;;;;;;;8.30;99.90;;;;;;5131669;27;19913;-44
2023/05/16 04:10:44;;;;;;;;;;;8.30;99.90;;;;;;5133885;27;19994;-42
2023/05/16 04:13:10;;;;;;;;;;;8.30;99.90;;;;;;5133242;27;19914;-43
2023/05/16 04:15:35;;;;;;;;;;;8.20;99.90;;;;;;5133869;27;19907;-45
2023/05/16 04:18:00;;;;;;;;;;;8.20;99.90;;;;;;5133446;27;20124;-44
2023/05/16 04:20:26;;;;;;;;;;;8.20;99.90;;;;;;5125674;28;19918;-44
2023/05/16 04:22:52;;;;;;;;;;;8.20;99.90;;;;;;5122657;28;19994;-45
2023/05/16 04:25:17;;;;;;;;;;;8.20;99.90;;;;;;5121949;28;19908;-46
2023/05/16 04:27:43;;;;;;;;;;;8.20;99.90;;;;;;5120277;28;19908;-45
2023/05/16 04:30:10;;;;;;;;;;;8.20;99.90;;;;;;5123045;28;19991;-45
2023/05/16 04:32:35;;;;;;;;;;;8.20;99.90;;;;;;5121198;28;19916;-43
2023/05/16 04:35:01;;;;;;;;;;;8.30;99.90;;;;;;5120571;28;19907;-45
2023/05/16 04:37:26;;;;;;;;;;;8.20;99.90;;;;;;5122569;28;19919;-44
2023/05/16 04:39:53;;;;;;;;;;;8.30;99.90;;;;;;5120994;28;19915;-43
2023/05/16 04:42:19;;;;;;;;;;;8.30;99.90;;;;;;5120703;28;19912;-42
2023/05/16 04:44:46;;;;;;;;;;;8.30;99.90;;;;;;5122643;28;20578;-42
2023/05/16 04:47:12;;;;;;;;;;;8.30;99.90;;;;;;5120719;28;19912;-43
2023/05/16 04:49:37;;;;;;;;;;;8.30;99.90;;;;;;5120705;28;20424;-43
2023/05/16 04:52:03;;;;;;;;;;;8.30;99.90;;;;;;5122081;27;19912;-43
2023/05/16 04:54:29;;;;;;;;;;;8.30;99.90;;;;;;5123330;27;19912;-46
2023/05/16 04:56:54;;;;;;;;;;;8.30;99.90;;;;;;5126035;27;19922;-43
2023/05/16 04:59:20;;;;;;;;;;;8.30;99.90;;;;;;5125682;27;19911;-44
2023/05/16 05:01:46;;;;;;;;;;;8.30;99.90;;;;;;5123071;27;19999;-42
2023/05/16 05:04:11;;;;;;;;;;;8.30;99.90;;;;;;5126149;27;19915;-43
2023/05/16 05:06:37;;;;;;;;;;;8.40;99.90;;;;;;5134828;27;20080;-43
2023/05/16 05:09:04;;;;;;;;;;;8.30;99.90;;;;;;5133278;27;19915;-46
2023/05/16 05:11:30;;;;;;;;;;;8.40;99.90;;;;;;5136283;27;19919;-43
2023/05/16 05:13:55;;;;;;;;;;;8.50;99.90;;;;;;5131132;27;19907;-47
2023/05/16 05:16:21;;;;;;;;;;;8.60;99.90;;;;;;5133299;27;19967;-43
2023/05/16 05:18:46;;;;;;;;;;;8.60;99.90;;;;;;5121039;27;19912;-43
2023/05/16 05:21:12;;;;;;;;;;;8.60;99.90;;;;;;5135913;27;20378;-44
2023/05/16 05:23:37;;;;;;;;;;;8.60;99.90;;;;;;5135841;27;19912;-43
2023/05/16 05:26:03;;;;;;;;;;;8.60;99.90;;;;;;5136111;27;20381;-43
2023/05/16 05:28:28;;;;;;;;;;;8.70;99.90;;;;;;5134024;27;19981;-44
2023/05/16 05:30:54;;;;;;;;;;;8.80;99.90;;;;;;5124127;27;20308;-43
2023/05/16 05:33:24;;;;;;;;;;;8.90;99.90;;;;;;5136373;27;19926;-43
2023/05/16 05:35:52;;;;;;;;;;;9.10;99.90;;;;;;5120993;27;19923;-43
2023/05/16 05:38:18;;;;;;;;;;;9.10;99.90;;;;;;5115092;28;19951;-43
2023/05/16 05:40:44;;;;;;;;;;;9.20;99.90;;;;;;5115841;28;19946;-43
2023/05/16 05:43:10;;;;;;;;;;;9.30;99.90;;;;;;5115999;28;20359;-44
2023/05/16 05:45:36;;;;;;;;;;;9.30;99.90;;;;;;5115021;28;19908;-42
2023/05/16 05:48:01;;;;;;;;;;;9.30;99.90;;;;;;5131291;27;19980;-43
2023/05/16 05:50:27;;;;;;;;;;;9.30;99.90;;;;;;5135920;27;19911;-43
2023/05/16 05:52:53;;;;;;;;;;;9.30;99.90;;;;;;5135503;27;19911;-43
2023/05/16 05:55:19;;;;;;;;;;;9.30;99.90;;;;;;5135998;27;20388;-45
2023/05/16 05:57:44;;;;;;;;;;;9.40;99.90;;;;;;5135870;27;19919;-48
2023/05/16 06:00:10;;;;;;;;;;;9.40;99.90;;;;;;5142849;27;19912;-44
2023/05/16 06:02:36;;;;;;;;;;;9.40;99.90;;;;;;5156842;27;19907;-43
2023/05/16 06:05:01;;;;;;;;;;;9.40;99.90;;;;;;5156048;27;19938;-42
2023/05/16 06:07:27;;;;;;;;;;;9.40;99.90;;;;;;5139899;27;19941;-43
2023/05/16 06:09:52;;;;;;;;;;;9.40;99.90;;;;;;5128903;27;19915;-45
2023/05/16 06:12:18;;;;;;;;;;;9.40;99.90;;;;;;5124264;27;20048;-43
2023/05/16 06:14:43;;;;;;;;;;;9.40;99.90;;;;;;5140957;27;20396;-43
2023/05/16 06:17:08;;;;;;;;;;;9.50;99.90;;;;;;5131684;27;20004;-43
2023/05/16 06:19:34;;;;;;;;;;;9.50;99.90;;;;;;5125856;27;19907;-46
2023/05/16 06:21:59;;;;;;;;;;;9.50;99.90;;;;;;5135859;27;19911;-43
2023/05/16 06:24:25;;;;;;;;;;;9.60;99.90;;;;;;5130511;27;20331;-44
2023/05/16 06:26:51;;;;;;;;;;;9.60;99.90;;;;;;5129395;27;19915;-44
2023/05/16 06:29:16;;;;;;;;;;;9.70;99.90;;;;;;5127570;27;19907;-44
2023/05/16 06:31:42;;;;;;;;;;;9.80;99.90;;;;;;5130861;27;19911;-44
2023/05/16 06:34:07;;;;;;;;;;;9.90;99.90;;;;;;5129441;27;19942;-44
2023/05/16 06:36:33;;;;;;;;;;;9.90;99.90;;;;;;5128704;27;19928;-46
2023/05/16 06:38:58;;;;;;;;;;;10.00;99.90;;;;;;5134234;27;19953;-43
2023/05/16 06:41:25;;;;;;;;;;;10.10;99.90;;;;;;5130077;27;19917;-43
2023/05/16 06:43:51;;;;;;;;;;;10.20;99.90;;;;;;5120492;27;20024;-45
2023/05/16 06:46:16;;;;;;;;;;;10.30;99.90;;;;;;5126653;27;20368;-45
2023/05/16 06:48:42;;;;;;;;;;;10.40;99.90;;;;;;5121837;27;19911;-47
2023/05/16 06:51:09;;;;;;;;;;;10.50;99.90;;;;;;5128688;27;19912;-46
2023/05/16 06:53:35;;;;;;;;;;;10.70;99.90;;;;;;5132218;27;20326;-47
2023/05/16 06:56:01;;;;;;;;;;;10.80;99.90;;;;;;5127997;27;19954;-43
2023/05/16 06:58:26;;;;;;;;;;;10.80;99.90;;;;;;5124508;27;19955;-44
2023/05/16 07:00:51;;;;;;;;;;;10.90;99.90;;;;;;5124447;27;20160;-45
2023/05/16 07:03:17;;;;;;;;;;;11.10;99.90;;;;;;5121152;27;19912;-43
2023/05/16 07:05:43;;;;;;;;;;;11.20;99.90;;;;;;5126253;27;19908;-44
2023/05/16 07:08:09;;;;;;;;;;;11.30;99.90;;;;;;5122400;27;19907;-45
2023/05/16 07:10:35;;;;;;;;;;;11.40;99.90;;;;;;5121758;27;19912;-43
2023/05/16 07:13:01;;;;;;;;;;;11.40;99.90;;;;;;5130887;27;19912;-44
2023/05/16 07:15:26;;;;;;;;;;;11.50;99.90;;;;;;5123335;27;20038;-44
2023/05/16 07:17:51;;;;;;;;;;;11.60;99.90;;;;;;5121954;27;20006;-44
2023/05/16 07:20:17;;;;;;;;;;;11.60;99.90;;;;;;5123522;27;19915;-45
2023/05/16 07:22:42;;;;;;;;;;;11.70;99.90;;;;;;5120657;27;19958;-43
2023/05/16 07:25:11;;;;;;;;;;;11.70;99.90;;;;;;5122988;27;19936;-46
2023/05/16 07:27:40;;;;;;;;;;;11.70;99.90;;;;;;5118873;27;20287;-46
2023/05/16 07:30:08;;;;;;;;;;;11.70;99.90;;;;;;5131157;27;19934;-43
2023/05/16 07:32:33;;;;;;;;;;;11.60;99.90;;;;;;5131106;27;20002;-43
2023/05/16 07:34:59;;;;;;;;;;;11.50;99.90;;;;;;5120267;27;20502;-45
2023/05/16 07:37:24;;;;;;;;;;;11.40;99.90;;;;;;5117469;27;19921;-43
2023/05/16 07:39:50;;;;;;;;;;;11.40;99.90;;;;;;5121707;27;20354;-46
2023/05/16 07:42:15;;;;;;;;;;;11.50;99.90;;;;;;5121372;27;19911;-43
2023/05/16 07:44:41;;;;;;;;;;;11.60;99.90;;;;;;5118703;27;19918;-43
2023/05/16 07:47:06;;;;;;;;;;;11.70;99.90;;;;;;5120927;27;19912;-44
2023/05/16 07:49:32;;;;;;;;;;;11.90;99.90;;;;;;5122914;27;19915;-43
2023/05/16 07:51:57;;;;;;;;;;;12.00;99.90;;;;;;5124728;27;19912;-44
2023/05/16 07:54:23;;;;;;;;;;;12.20;99.90;;;;;;5132407;27;19919;-43
2023/05/16 07:56:48;;;;;;;;;;;12.30;99.90;;;;;;5138553;27;19962;-45
2023/05/16 07:59:13;;;;;;;;;;;12.40;99.90;;;;;;5153811;27;19907;-44
2023/05/16 08:01:39;;;;;;;;;;;12.30;99.90;;;;;;5129421;27;20421;-45
2023/05/16 08:04:04;;;;;;;;;;;12.30;99.90;;;;;;5113267;28;19912;-45
2023/05/16 08:06:30;;;;;;;;;;;12.30;99.90;;;;;;5112321;28;19911;-44
2023/05/16 08:08:55;;;;;;;;;;;12.40;99.90;;;;;;5113611;27;19915;-43
2023/05/16 08:11:21;;;;;;;;;;;12.50;99.90;;;;;;5144600;27;19919;-44
2023/05/16 08:13:47;;;;;;;;;;;12.50;99.90;;;;;;5136909;27;20319;-44
2023/05/16 08:16:12;;;;;;;;;;;12.50;99.90;;;;;;5132793;27;19915;-43
2023/05/16 08:18:38;;;;;;;;;;;12.40;99.70;;;;;;5151660;27;20341;-46
2023/05/16 08:21:04;;;;;;;;;;;12.40;99.90;;;;;;5153539;27;20345;-45
2023/05/16 08:23:29;;;;;;;;;;;12.60;99.90;;;;;;5154119;27;19912;-42
2023/05/16 08:25:55;;;;;;;;;;;12.70;99.90;;;;;;5153413;27;19907;-44
2023/05/16 08:28:20;;;;;;;;;;;12.80;99.90;;;;;;5135377;27;19912;-44
2023/05/16 08:30:46;;;;;;;;;;;13.00;99.90;;;;;;5137747;27;19911;-45
2023/05/16 08:33:12;;;;;;;;;;;13.10;99.90;;;;;;5136654;27;19919;-44
2023/05/16 08:35:41;;;;;;;;;;;13.20;99.90;;;;;;5137556;27;19915;-44
2023/05/16 08:38:06;;;;;;;;;;;13.30;99.60;;;;;;5137399;27;19923;-43
2023/05/16 08:40:32;;;;;;;;;;;13.40;98.40;;;;;;5136613;27;19908;-45
2023/05/16 08:42:58;;;;;;;;;;;13.60;98.60;;;;;;5137364;27;20006;-42
2023/05/16 08:45:23;;;;;;;;;;;13.70;98.20;;;;;;5138552;27;19962;-43
2023/05/16 08:47:50;;;;;;;;;;;14.00;97.30;;;;;;5138009;27;19919;-44
2023/05/16 08:50:15;;;;;;;;;;;14.00;96.60;;;;;;5125694;27;19930;-43
2023/05/16 08:52:43;;;;;;;;;;;13.90;94.50;;;;;;5137371;27;20293;-44
2023/05/16 08:55:10;;;;;;;;;;;13.70;94.60;;;;;;5135152;27;19918;-43
2023/05/16 08:57:36;;;;;;;;;;;13.30;92.70;;;;;;5146598;27;20004;-45
2023/05/16 09:00:06;;;;;;;;;;;13.10;92.20;;;;;;5143677;27;20397;-44
2023/05/16 09:02:31;;;;;;;;;;;12.80;92.80;;;;;;5138058;27;19919;-44
2023/05/16 09:04:58;;;;;;;;;;;12.70;93.20;;;;;;5145530;27;19914;-44
2023/05/16 09:07:23;;;;;;;;;;;12.90;95.40;;;;;;5140388;27;20291;-44
2023/05/16 09:09:49;;;;;;;;;;;13.10;93.90;;;;;;5154548;27;20144;-43
2023/05/16 09:12:14;;;;;;;;;;;13.40;96.40;;;;;;5152334;27;19911;-43
2023/05/16 09:14:40;;;;;;;;;;;13.70;94.70;;;;;;5151642;27;19911;-48
2023/05/16 09:17:07;;;;;;;;;;;13.70;95.10;;;;;;5148034;27;19915;-44
2023/05/16 09:19:36;;;;;;;;;;;13.60;92.10;;;;;;5157853;27;19911;-43
2023/05/16 09:22:02;;;;;;;;;;;13.70;94.10;;;;;;5136770;27;19922;-45
2023/05/16 09:24:28;;;;;;;;;;;14.00;94.50;;;;;;5135452;27;19912;-43
2023/05/16 09:26:53;;;;;;;;;;;14.20;94.40;;;;;;5149031;27;19963;-45
2023/05/16 09:29:19;;;;;;;;;;;14.30;95.30;;;;;;5148063;27;20263;-43
2023/05/16 09:31:44;;;;;;;;;;;14.40;94.50;;;;;;5138743;27;19923;-44
2023/05/16 09:34:11;;;;;;;;;;;14.30;93.30;;;;;;5120004;27;19920;-46
2023/05/16 09:36:37;;;;;;;;;;;14.40;93.30;;;;;;5143618;27;20463;-45
2023/05/16 09:39:02;;;;;;;;;;;14.50;94.30;;;;;;5143267;27;19911;-44
2023/05/16 09:41:32;;;;;;;;;;;14.50;94.00;;;;;;5149028;27;19915;-43
2023/05/16 09:43:57;;;;;;;;;;;14.30;93.60;;;;;;5139318;27;19912;-44
2023/05/16 09:46:26;;;;;;;;;;;14.20;93.40;;;;;;5136878;27;19915;-43
2023/05/16 09:48:53;;;;;;;;;;;14.10;91.70;;;;;;5131757;27;19919;-44
2023/05/16 09:51:21;;;;;;;;;;;14.30;91.20;;;;;;5128457;27;19998;-44
2023/05/16 09:53:46;;;;;;;;;;;14.40;88.50;;;;;;5132644;27;19911;-45
2023/05/16 09:56:12;;;;;;;;;;;14.30;86.60;;;;;;5136859;27;20422;-44
2023/05/16 09:58:39;;;;;;;;;;;14.10;88.90;;;;;;5144679;27;19911;-46
2023/05/16 10:01:05;;;;;;;;;;;14.10;92.30;;;;;;5142239;27;19916;-43
2023/05/16 10:03:32;;;;;;;;;;;14.10;92.20;;;;;;5114373;28;19993;-44
2023/05/16 10:05:58;;;;;;;;;;;14.30;92.40;;;;;;5105117;27;20422;-44
2023/05/16 10:08:25;;;;;;;;;;;14.60;89.30;;;;;;5146250;27;19922;-44
2023/05/16 10:10:51;;;;;;;;;;;14.80;90.40;;;;;;5137196;27;20009;-43
2023/05/16 10:13:19;;;;;;;;;;;14.80;88.30;;;;;;5143463;27;20032;-44
2023/05/16 10:15:45;;;;;;;;;;;15.00;84.80;;;;;;5137444;27;20379;-45
2023/05/16 10:18:13;;;;;;;;;;;14.90;80.60;;;;;;5142782;27;20285;-45
2023/05/16 10:20:42;;;;;;;;;;;14.70;82.00;;;;;;5148614;27;20362;-44
2023/05/16 10:23:08;;;;;;;;;;;14.60;80.00;;;;;;5147502;27;19918;-45
2023/05/16 10:25:40;;;;;;;;;;;14.60;80.50;;;;;;5141943;27;19908;-44
2023/05/16 10:28:07;;;;;;;;;;;14.60;75.10;;;;;;5144231;27;19907;-44
2023/05/16 10:30:33;;;;;;;;;;;14.70;77.00;;;;;;5152962;27;19918;-47
2023/05/16 10:33:00;;;;;;;;;;;14.80;79.20;;;;;;5138491;27;19926;-46
2023/05/16 10:35:26;;;;;;;;;;;15.00;76.20;;;;;;5131252;27;19912;-46
2023/05/16 10:37:52;;;;;;;;;;;14.90;85.90;;;;;;5134296;27;19927;-44
2023/05/16 10:40:18;;;;;;;;;;;14.80;88.00;;;;;;5153123;27;19911;-44
2023/05/16 10:42:54;;;;;;;;;;;14.90;88.20;;;;;;5138004;27;20358;-44
2023/05/16 10:45:20;;;;;;;;;;;15.20;87.50;;;;;;5135042;27;19912;-45
2023/05/16 10:47:55;;;;;;;;;;;15.20;86.70;;;;;;5136559;27;19918;-43
2023/05/16 10:50:31;;;;;;;;;;;15.20;84.30;;;;;;5139303;27;19926;-44
2023/05/16 10:53:09;;;;;;;;;;;15.10;87.70;;;;;;5126179;27;19915;-44
2023/05/16 10:55:35;;;;;;;;;;;15.10;86.00;;;;;;5134381;27;19912;-46
2023/05/16 10:58:01;;;;;;;;;;;15.10;83.50;;;;;;5134272;27;19915;-46
2023/05/16 11:00:29;;;;;;;;;;;15.20;84.30;;;;;;5134503;27;19960;-44
2023/05/16 11:03:03;;;;;;;;;;;15.30;79.90;;;;;;5134929;27;19918;-46
2023/05/16 11:05:29;;;;;;;;;;;15.30;79.20;;;;;;5134234;27;19985;-46
2023/05/16 11:08:03;;;;;;;;;;;15.40;79.10;;;;;;5134297;27;20324;-46
2023/05/16 11:10:28;;;;;;;;;;;15.50;80.20;;;;;;5134054;27;19954;-45
2023/05/16 11:13:01;;;;;;;;;;;15.50;83.80;;;;;;5134524;27;19959;-44
2023/05/16 11:15:27;;;;;;;;;;;15.50;75.30;;;;;;5133452;27;19915;-46
2023/05/16 11:18:06;;;;;;;;;;;15.60;75.30;;;;;;5134686;27;19915;-45
2023/05/16 11:20:33;;;;;;;;;;;15.70;84.00;;;;;;5129570;27;19912;-45
2023/05/16 11:23:17;;;;;;;;;;;15.90;81.10;;;;;;5114007;28;19907;-46
2023/05/16 11:25:51;;;;;;;;;;;15.70;77.20;;;;;;5115448;27;19931;-44
2023/05/16 11:28:20;;;;;;;;;;;15.60;78.80;;;;;;5148126;27;20010;-44
2023/05/16 11:30:51;;;;;;;;;;;15.30;80.70;;;;;;5136310;27;19922;-45
2023/05/16 11:33:17;;;;;;;;;;;15.30;81.30;;;;;;5150792;27;19941;-45
2023/05/16 11:35:43;;;;;;;;;;;15.50;81.80;;;;;;5142056;27;20368;-45
2023/05/16 11:38:11;;;;;;;;;;;15.80;81.40;;;;;;5124306;27;20301;-43
2023/05/16 11:40:37;;;;;;;;;;;15.80;78.80;;;;;;5133392;27;19912;-44
2023/05/16 11:43:03;;;;;;;;;;;15.70;76.40;;;;;;5133628;27;19908;-44
2023/05/16 11:45:28;;;;;;;;;;;15.80;78.40;;;;;;5134043;27;19914;-44
2023/05/16 11:48:00;;;;;;;;;;;15.80;79.70;;;;;;5133148;27;20289;-43
2023/05/16 11:50:25;;;;;;;;;;;15.90;78.70;;;;;;5132916;27;19920;-44
2023/05/16 11:52:52;;;;;;;;;;;15.90;78.80;;;;;;5132985;27;19918;-43
2023/05/16 11:55:20;;;;;;;;;;;15.80;76.30;;;;;;5133635;27;19918;-44
2023/05/16 11:57:46;;;;;;;;;;;15.80;75.00;;;;;;5133267;27;20269;-45
2023/05/16 12:00:16;;;;;;;;;;;16.00;74.30;;;;;;5118963;27;19912;-46
2023/05/16 12:02:43;;;;;;;;;;;16.00;70.30;;;;;;5113025;28;19908;-44
2023/05/16 12:05:09;;;;;;;;;;;15.80;69.70;;;;;;5112546;27;19907;-45
2023/05/16 12:07:35;;;;;;;;;;;15.70;72.00;;;;;;5133211;27;19918;-43
2023/05/16 12:10:07;;;;;;;;;;;15.60;76.10;;;;;;5133213;27;20385;-45
2023/05/16 12:12:33;;;;;;;;;;;15.50;77.60;;;;;;5111534;28;19916;-44
2023/05/16 12:14:59;;;;;;;;;;;15.50;74.00;;;;;;5111967;28;19960;-44
2023/05/16 12:17:24;;;;;;;;;;;15.60;76.00;;;;;;5112062;28;20298;-43
2023/05/16 12:19:50;;;;;;;;;;;15.60;75.60;;;;;;5111693;28;19911;-43
2023/05/16 12:22:17;;;;;;;;;;;15.80;77.80;;;;;;5130134;27;20006;-46
2023/05/16 12:24:43;;;;;;;;;;;16.00;75.80;;;;;;5131887;27;19914;-44
2023/05/16 12:27:08;;;;;;;;;;;16.30;77.40;;;;;;5133735;28;19907;-44
2023/05/16 12:29:34;;;;;;;;;;;16.60;76.90;;;;;;5133517;28;19929;-43
2023/05/16 12:32:00;;;;;;;;;;;16.90;77.90;;;;;;5132892;28;19990;-44
2023/05/16 12:34:28;;;;;;;;;;;16.90;72.40;;;;;;5133261;28;20003;-44
2023/05/16 12:36:53;;;;;;;;;;;16.90;73.60;;;;;;5118105;28;19923;-44
2023/05/16 12:39:19;;;;;;;;;;;17.00;74.10;;;;;;5112200;28;19961;-43
2023/05/16 12:41:45;;;;;;;;;;;17.10;74.50;;;;;;5113061;28;19907;-43
2023/05/16 12:44:13;;;;;;;;;;;17.10;71.60;;;;;;5112794;28;19918;-44
2023/05/16 12:46:57;;;;;;;;;;;17.00;74.10;;;;;;5112238;28;20342;-45
2023/05/16 12:49:22;;;;;;;;;;;16.80;70.10;;;;;;5112927;28;19960;-43
2023/05/16 12:51:49;;;;;;;;;;;16.40;73.00;;;;;;5112979;28;19912;-45
2023/05/16 12:54:15;;;;;;;;;;;16.10;74.40;;;;;;5112040;28;19919;-46
2023/05/16 12:56:41;;;;;;;;;;;15.90;74.80;;;;;;5112763;28;19916;-47
2023/05/16 12:59:07;;;;;;;;;;;16.20;76.60;;;;;;5112821;28;19953;-46
2023/05/16 13:01:33;;;;;;;;;;;16.80;77.40;;;;;;5111991;28;19935;-44
2023/05/16 13:04:00;;;;;;;;;;;17.20;73.60;;;;;;5112962;28;19908;-43
2023/05/16 13:06:25;;;;;;;;;;;17.60;76.00;;;;;;5123577;28;19982;-44
2023/05/16 13:08:51;;;;;;;;;;;17.90;73.60;;;;;;5123927;28;20385;-43
2023/05/16 13:11:17;;;;;;;;;;;17.80;73.00;;;;;;5133194;28;19956;-43
2023/05/16 13:13:43;;;;;;;;;;;17.30;70.40;;;;;;5133716;27;19908;-44
2023/05/16 13:16:09;;;;;;;;;;;17.00;74.80;;;;;;5136352;27;20323;-44
2023/05/16 13:18:35;;;;;;;;;;;16.80;75.60;;;;;;5137007;27;20394;-44
2023/05/16 13:21:02;;;;;;;;;;;17.20;76.20;;;;;;5136129;27;19914;-43
2023/05/16 13:23:28;;;;;;;;;;;17.80;75.50;;;;;;5136871;27;19922;-44
2023/05/16 13:25:54;;;;;;;;;;;17.90;68.30;;;;;;5137082;27;19907;-45
2023/05/16 13:28:19;;;;;;;;;;;17.80;70.70;;;;;;5135842;27;19911;-43
2023/05/16 13:30:45;;;;;;;;;;;17.60;66.30;;;;;;5136864;27;19926;-45
2023/05/16 13:33:11;;;;;;;;;;;17.30;69.00;;;;;;5136328;27;19919;-44
2023/05/16 13:35:37;;;;;;;;;;;17.00;68.40;;;;;;5132191;27;19916;-43
2023/05/16 13:38:02;;;;;;;;;;;17.00;72.30;;;;;;5128984;27;19964;-45
2023/05/16 13:40:28;;;;;;;;;;;17.20;72.50;;;;;;5151851;27;19919;-48
2023/05/16 13:42:54;;;;;;;;;;;17.20;71.40;;;;;;5140025;27;19976;-45
2023/05/16 13:45:19;;;;;;;;;;;17.10;69.90;;;;;;5144272;27;19911;-43
2023/05/16 13:47:45;;;;;;;;;;;16.80;73.40;;;;;;5153766;27;20591;-44
2023/05/16 13:50:11;;;;;;;;;;;16.50;73.70;;;;;;5142003;27;20009;-45
2023/05/16 13:52:37;;;;;;;;;;;16.30;76.20;;;;;;5139408;27;19912;-43
2023/05/16 13:55:02;;;;;;;;;;;16.20;77.30;;;;;;5133076;27;19912;-44
2023/05/16 13:57:28;;;;;;;;;;;16.10;78.20;;;;;;5128871;27;19923;-46
2023/05/16 13:59:53;;;;;;;;;;;16.00;78.20;;;;;;5134164;27;19911;-45
2023/05/16 14:02:19;;;;;;;;;;;16.70;78.80;;;;;;5126440;27;20060;-45
2023/05/16 14:04:44;;;;;;;;;;;17.50;80.40;;;;;;5128457;27;19960;-44
2023/05/16 14:07:10;;;;;;;;;;;17.90;77.30;;;;;;5126835;27;19912;-43
2023/05/16 14:09:38;;;;;;;;;;;17.90;76.80;;;;;;5122859;27;20286;-43
2023/05/16 14:12:06;;;;;;;;;;;17.60;74.90;;;;;;5130272;27;19911;-45
2023/05/16 14:14:32;;;;;;;;;;;17.30;74.40;;;;;;5133222;27;19918;-44
2023/05/16 14:16:58;;;;;;;;;;;16.80;76.70;;;;;;5136558;27;19936;-45